Time;durP1;ratioP1;P1;durP2;ratioP2;P2;SDS_P1;SDS_P2;PMS_P1;PMS_P2;Temp;Humidity;BMP_temperature;BMP_pressure;BME280_temperature;BME280_humidity;BME280_pressure;Samples;Min_cycle;Max_cycle;Signal;HPM_P1;HPM_P2
2022/06/20 00:01:05;;;;;;;4.15;1.13;;;13.20;99.90;;;;;;5045899;28;20080;-72
2022/06/20 00:03:40;;;;;;;9.95;1.70;;;13.20;99.90;;;;;;5049200;28;20076;-72
2022/06/20 00:06:11;;;;;;;6.10;1.77;;;13.20;99.90;;;;;;5063555;28;20087;-72
2022/06/20 00:08:37;;;;;;;3.67;1.05;;;13.10;99.90;;;;;;5066781;28;20052;-72
2022/06/20 00:11:02;;;;;;;7.55;1.25;;;13.10;99.90;;;;;;5061616;28;20387;-72
2022/06/20 00:13:33;;;;;;;10.07;1.48;;;13.10;99.90;;;;;;5056025;28;20056;-72
2022/06/20 00:16:02;;;;;;;4.75;1.40;;;13.10;99.90;;;;;;5057232;28;20048;-72
2022/06/20 00:18:30;;;;;;;8.13;1.13;;;13.20;99.90;;;;;;5052920;28;20141;-73
2022/06/20 00:20:56;;;;;;;6.32;1.60;;;13.20;99.90;;;;;;5082041;28;20392;-72
2022/06/20 00:23:22;;;;;;;6.38;1.55;;;13.20;99.90;;;;;;5065677;28;20048;-73
2022/06/20 00:25:48;;;;;;;7.10;1.45;;;13.20;99.90;;;;;;5066552;28;20056;-73
2022/06/20 00:28:16;;;;;;;7.88;2.38;;;13.20;99.90;;;;;;5059680;28;20051;-73
2022/06/20 00:30:42;;;;;;;7.05;1.67;;;13.20;99.90;;;;;;5064738;28;20047;-72
2022/06/20 00:33:10;;;;;;;9.40;2.67;;;13.30;99.90;;;;;;5047145;28;20060;-72
2022/06/20 00:35:37;;;;;;;9.27;3.55;;;13.30;99.90;;;;;;5063626;28;20045;-70
2022/06/20 00:38:05;;;;;;;16.25;6.57;;;13.30;99.90;;;;;;5065781;28;20083;-69
2022/06/20 00:40:43;;;;;;;23.08;6.55;;;13.30;99.90;;;;;;5051834;28;20253;-70
2022/06/20 00:43:13;;;;;;;30.35;9.55;;;13.40;99.90;;;;;;5066189;28;20133;-69
2022/06/20 00:45:44;;;;;;;;;;;13.40;99.90;;;;;;5065096;28;20118;-69
2022/06/20 00:48:27;;;;;;;17.05;3.45;;;13.40;99.90;;;;;;5080774;28;19966;-70
2022/06/20 00:50:59;;;;;;;8.63;2.30;;;13.40;99.90;;;;;;5066044;28;20512;-70
2022/06/20 00:53:32;;;;;;;8.27;1.63;;;13.50;99.90;;;;;;5065046;28;20054;-70
2022/06/20 00:56:13;;;;;;;5.20;1.75;;;13.50;99.90;;;;;;5064762;28;20111;-69
2022/06/20 00:58:55;;;;;;;5.05;1.38;;;13.50;99.90;;;;;;5065186;28;20047;-70
2022/06/20 01:01:34;;;;;;;7.25;1.13;;;13.60;99.90;;;;;;5065689;28;20520;-70
2022/06/20 01:04:07;;;;;;;7.45;1.73;;;13.60;99.90;;;;;;5066147;28;20064;-71
2022/06/20 01:06:40;;;;;;;3.22;1.10;;;13.60;99.90;;;;;;5063837;28;20044;-70
2022/06/20 01:09:10;;;;;;;5.40;1.27;;;13.60;99.90;;;;;;5045118;28;20127;-70
2022/06/20 01:11:52;;;;;;;6.13;1.15;;;13.60;99.90;;;;;;5064092;28;20047;-70
2022/06/20 01:14:24;;;;;;;7.50;1.40;;;13.60;99.90;;;;;;5063447;28;20383;-70
2022/06/20 01:16:58;;;;;;;3.80;1.00;;;13.60;99.90;;;;;;5066259;28;20536;-70
2022/06/20 01:19:52;;;;;;;5.75;1.33;;;13.70;99.90;;;;;;5064466;28;20040;-70
2022/06/20 01:22:42;;;;;;;8.00;1.10;;;13.60;99.90;;;;;;5063734;28;20136;-69
2022/06/20 01:25:14;;;;;;;5.22;1.35;;;13.60;99.90;;;;;;5053953;28;20106;-70
2022/06/20 01:27:42;;;;;;;7.68;1.73;;;13.60;99.90;;;;;;5062372;28;20065;-70
2022/06/20 01:30:08;;;;;;;8.10;1.45;;;13.50;99.90;;;;;;5069482;28;20064;-70
2022/06/20 01:32:35;;;;;;;2.65;0.80;;;13.40;99.90;;;;;;5069076;28;20045;-69
2022/06/20 01:35:05;;;;;;;5.60;1.48;;;13.30;99.90;;;;;;5068466;28;20041;-70
2022/06/20 01:37:38;;;;;;;5.18;1.20;;;13.30;99.90;;;;;;5069651;28;20052;-70
2022/06/20 01:40:11;;;;;;;7.78;1.73;;;13.30;99.90;;;;;;5069093;28;20059;-70
2022/06/20 01:42:37;;;;;;;7.70;1.40;;;13.30;99.90;;;;;;5069534;28;20124;-70
2022/06/20 01:46:14;;;;;;;5.75;1.35;;;13.20;99.90;;;;;;5066309;28;20050;-70
2022/06/20 01:48:21;;;;;;;6.80;1.33;;;13.10;99.90;;;;;;5055237;28;20091;-69
2022/06/20 01:50:47;;;;;;;6.53;1.23;;;13.10;99.90;;;;;;5068003;28;20064;-70
2022/06/20 01:53:17;;;;;;;4.90;1.40;;;13.20;99.90;;;;;;5067979;28;20047;-70
2022/06/20 01:55:46;;;;;;;3.72;1.23;;;13.10;99.90;;;;;;5069734;28;20072;-70
2022/06/20 01:58:18;;;;;;;6.97;1.77;;;13.10;99.90;;;;;;5066475;28;20127;-70
2022/06/20 02:00:44;;;;;;;4.78;1.50;;;13.00;99.90;;;;;;5055840;28;20572;-70
2022/06/20 02:03:19;;;;;;;6.18;1.13;;;13.00;99.90;;;;;;5063359;28;20134;-70
2022/06/20 02:05:48;;;;;;;6.13;1.20;;;13.00;99.90;;;;;;5084244;28;20051;-70
2022/06/20 02:08:17;;;;;;;5.93;1.30;;;13.00;99.90;;;;;;5067184;28;20056;-70
2022/06/20 02:10:48;;;;;;;6.53;1.20;;;12.90;99.90;;;;;;5066799;28;20079;-70
2022/06/20 02:13:16;;;;;;;5.40;1.38;;;12.90;99.90;;;;;;5067508;28;20448;-70
2022/06/20 02:15:45;;;;;;;6.20;1.15;;;12.90;99.90;;;;;;5068177;28;20498;-69
2022/06/20 02:18:12;;;;;;;4.05;1.23;;;12.80;99.90;;;;;;5068155;28;20044;-70
2022/06/20 02:20:48;;;;;;;5.15;1.58;;;12.90;99.90;;;;;;5068392;28;20162;-70
2022/06/20 02:23:18;;;;;;;13.02;1.30;;;12.80;99.90;;;;;;5066778;28;20159;-70
2022/06/20 02:25:44;;;;;;;;;;;12.80;99.90;;;;;;5068143;28;20105;-70
2022/06/20 02:28:18;;;;;;;8.00;1.13;;;12.80;99.90;;;;;;5065890;28;19920;-70
2022/06/20 02:30:44;;;;;;;7.00;1.40;;;12.70;99.90;;;;;;5061662;28;20083;-70
2022/06/20 02:33:29;;;;;;;7.05;1.30;;;12.70;99.90;;;;;;5067191;28;20084;-72
2022/06/20 02:35:58;;;;;;;6.88;1.90;;;12.60;99.90;;;;;;5050786;28;20056;-72
2022/06/20 02:38:24;;;;;;;7.90;1.85;;;12.60;99.90;;;;;;5066591;28;20056;-72
2022/06/20 02:40:55;;;;;;;3.95;1.48;;;12.50;99.90;;;;;;5065702;28;20075;-72
2022/06/20 02:43:37;;;;;;;5.70;1.38;;;12.40;99.90;;;;;;5066520;28;20486;-72
2022/06/20 02:46:09;;;;;;;7.75;1.48;;;12.40;99.90;;;;;;5066201;28;20040;-72
2022/06/20 02:48:36;;;;;;;4.25;1.33;;;12.30;99.90;;;;;;5067089;28;20048;-72
2022/06/20 02:51:06;;;;;;;10.02;1.90;;;12.30;99.90;;;;;;5068261;28;20053;-72
2022/06/20 02:53:38;;;;;;;10.20;1.60;;;12.30;99.90;;;;;;5066077;28;20044;-73
2022/06/20 02:56:06;;;;;;;9.70;2.20;;;12.20;99.90;;;;;;5066518;28;20133;-73
2022/06/20 02:58:35;;;;;;;10.90;1.50;;;12.20;99.90;;;;;;5065973;28;20090;-73
2022/06/20 03:01:27;;;;;;;3.50;1.00;;;12.20;99.90;;;;;;5067098;28;20081;-72
2022/06/20 03:03:55;;;;;;;5.75;1.40;;;12.20;99.90;;;;;;5050207;28;20417;-72
2022/06/20 03:06:29;;;;;;;8.48;1.38;;;12.10;99.90;;;;;;5066061;28;20048;-72
2022/06/20 03:08:56;;;;;;;5.97;1.50;;;12.10;99.90;;;;;;5066718;28;20040;-72
2022/06/20 03:11:23;;;;;;;5.38;1.48;;;12.00;99.90;;;;;;5065984;28;20095;-72
2022/06/20 03:13:50;;;;;;;4.25;1.35;;;12.00;99.90;;;;;;5066308;28;20044;-72
2022/06/20 03:16:17;;;;;;;5.03;1.75;;;11.90;99.90;;;;;;5065254;28;20131;-72
2022/06/20 03:18:49;;;;;;;9.13;1.80;;;11.90;99.90;;;;;;5067065;28;20154;-72
2022/06/20 03:21:23;;;;;;;9.00;1.75;;;11.80;99.90;;;;;;5065576;28;20088;-72
2022/06/20 03:23:52;;;;;;;3.38;1.55;;;11.80;99.90;;;;;;5067293;28;20112;-72
2022/06/20 03:26:22;;;;;;;5.70;2.17;;;11.70;99.90;;;;;;5066668;28;20061;-72
2022/06/20 03:28:48;;;;;;;7.55;1.88;;;11.70;99.90;;;;;;5066792;28;20512;-72
2022/06/20 03:31:14;;;;;;;6.72;1.77;;;11.70;99.90;;;;;;5067706;28;20037;-72
2022/06/20 03:33:41;;;;;;;6.32;2.00;;;11.70;99.90;;;;;;5064716;28;20052;-72
2022/06/20 03:36:11;;;;;;;9.75;2.55;;;11.70;99.90;;;;;;5066969;28;20087;-72
2022/06/20 03:38:38;;;;;;;4.78;1.55;;;11.70;99.90;;;;;;5066022;28;20152;-72
2022/06/20 03:41:06;;;;;;;4.88;1.90;;;11.70;99.90;;;;;;5065921;28;20087;-72
2022/06/20 03:43:33;;;;;;;6.88;2.50;;;11.70;99.90;;;;;;5065484;28;20886;-72
2022/06/20 03:46:10;;;;;;;7.95;3.75;;;11.70;99.90;;;;;;5066721;28;20076;-72
2022/06/20 03:48:41;;;;;;;10.55;5.38;;;11.80;99.90;;;;;;5067190;28;20049;-72
2022/06/20 03:51:26;;;;;;;22.40;5.80;;;11.80;99.90;;;;;;5064423;28;20119;-72
2022/06/20 03:54:01;;;;;;;11.25;4.50;;;11.80;99.90;;;;;;5052210;28;20059;-72
2022/06/20 03:57:06;;;;;;;13.48;3.97;;;11.80;99.90;;;;;;5067023;28;20236;-73
2022/06/20 03:59:41;;;;;;;13.70;2.85;;;11.80;99.90;;;;;;5056064;28;20090;-72
2022/06/20 04:02:38;;;;;;;9.00;2.22;;;11.80;99.90;;;;;;5066629;28;20067;-72
2022/06/20 04:05:22;;;;;;;9.57;2.97;;;11.80;99.90;;;;;;5064708;28;20065;-72
2022/06/20 04:08:03;;;;;;;12.20;3.10;;;11.80;99.90;;;;;;5064859;28;20052;-72
2022/06/20 04:10:58;;;;;;;13.07;3.55;;;11.80;99.90;;;;;;5065349;28;20120;-73
2022/06/20 04:13:40;;;;;;;13.93;4.22;;;11.80;99.90;;;;;;5064749;28;20048;-72
2022/06/20 04:16:44;;;;;;;11.68;3.55;;;11.80;99.90;;;;;;5064398;28;20056;-72
2022/06/20 04:19:34;;;;;;;12.32;3.30;;;11.90;99.90;;;;;;5035536;28;20063;-72
2022/06/20 04:22:10;;;;;;;15.13;3.58;;;11.90;99.90;;;;;;5066052;28;20522;-72
2022/06/20 04:25:10;;;;;;;10.80;3.92;;;12.00;99.90;;;;;;5064562;28;20033;-72
2022/06/20 04:27:48;;;;;;;14.02;4.13;;;12.00;99.90;;;;;;5065945;28;20103;-72
2022/06/20 04:30:40;;;;;;;11.82;4.22;;;12.10;99.90;;;;;;5065785;28;20088;-72
2022/06/20 04:33:22;;;;;;;14.43;5.25;;;12.10;99.90;;;;;;5064082;28;20040;-72
2022/06/20 04:36:32;;;;;;;14.32;5.22;;;12.20;99.90;;;;;;5065042;28;20052;-72
2022/06/20 04:39:17;;;;;;;19.00;7.80;;;12.30;99.90;;;;;;5056778;28;20056;-72
2022/06/20 04:41:52;;;;;;;17.23;6.45;;;12.40;99.90;;;;;;5047741;28;20044;-72
2022/06/20 04:44:42;;;;;;;18.20;4.45;;;12.50;99.90;;;;;;5065924;28;20040;-73
2022/06/20 04:47:20;;;;;;;11.13;3.15;;;12.60;99.90;;;;;;5050197;28;20060;-72
2022/06/20 04:49:46;;;;;;;10.00;2.50;;;12.70;99.90;;;;;;5064813;28;20048;-72
2022/06/20 04:52:15;;;;;;;11.10;2.67;;;12.80;99.90;;;;;;5064104;28;20052;-72
2022/06/20 04:54:41;;;;;;;6.60;2.00;;;12.90;99.90;;;;;;5064437;28;20082;-73
2022/06/20 04:57:11;;;;;;;13.90;2.47;;;13.00;99.90;;;;;;5064249;28;20287;-72
2022/06/20 04:59:37;;;;;;;10.35;2.42;;;13.00;99.90;;;;;;5065239;28;20510;-73
2022/06/20 05:02:09;;;;;;;11.13;2.65;;;13.10;99.90;;;;;;5064933;28;20087;-73
2022/06/20 05:04:41;;;;;;;15.20;4.25;;;13.20;99.90;;;;;;5063094;28;20060;-72
2022/06/20 05:07:17;;;;;;;12.20;3.00;;;13.50;99.90;;;;;;5064840;28;20436;-72
2022/06/20 05:10:13;;;;;;;13.95;2.97;;;14.00;99.90;;;;;;5066066;28;20111;-72
2022/06/20 05:13:19;;;;;;;10.43;2.13;;;14.20;99.90;;;;;;5065362;28;20436;-72
2022/06/20 05:15:47;;;;;;;10.35;2.40;;;14.20;99.90;;;;;;5007157;28;20058;-73
2022/06/20 05:18:27;;;;;;;10.45;2.10;;;14.20;99.90;;;;;;5049368;28;20053;-73
2022/06/20 05:20:59;;;;;;;10.90;2.30;;;14.10;99.90;;;;;;5064793;28;20118;-72
2022/06/20 05:23:28;;;;;;;9.45;2.58;;;13.90;99.90;;;;;;5065821;28;20486;-72
2022/06/20 05:25:55;;;;;;;14.07;3.08;;;13.80;99.90;;;;;;5063198;28;20068;-72
2022/06/20 05:28:24;;;;;;;9.60;2.80;;;13.80;99.90;;;;;;5064546;28;20064;-73
2022/06/20 05:30:51;;;;;;;12.32;4.40;;;13.70;99.90;;;;;;5063142;28;20487;-72
2022/06/20 05:33:28;;;;;;;22.10;5.47;;;13.80;99.90;;;;;;5063623;28;20044;-72
2022/06/20 05:36:14;;;;;;;17.88;4.30;;;13.80;99.90;;;;;;5064185;28;20139;-72
2022/06/20 05:38:50;;;;;;;17.55;5.53;;;13.90;99.90;;;;;;5050664;28;20052;-72
2022/06/20 05:41:17;;;;;;;16.88;6.03;;;14.00;99.90;;;;;;5064693;28;20036;-72
2022/06/20 05:43:43;;;;;;;24.50;6.43;;;14.00;99.90;;;;;;5036206;28;20052;-72
2022/06/20 05:46:42;;;;;;;13.80;3.38;;;14.10;99.90;;;;;;5065555;28;20047;-72
2022/06/20 05:49:36;;;;;;;13.23;3.53;;;14.30;99.90;;;;;;5054424;28;20515;-72
2022/06/20 05:52:05;;;;;;;9.95;3.10;;;14.40;99.90;;;;;;5058965;28;20059;-72
2022/06/20 05:54:48;;;;;;;11.45;3.15;;;14.40;99.90;;;;;;5064003;28;20052;-72
2022/06/20 05:57:18;;;;;;;9.55;2.70;;;14.50;99.90;;;;;;5063757;28;20440;-72
2022/06/20 05:59:55;;;;;;;;;;;14.60;99.90;;;;;;5056119;28;20052;-72
2022/06/20 06:02:39;;;;;;;7.68;3.28;;;14.70;99.90;;;;;;5057405;28;19924;-72
2022/06/20 06:05:19;;;;;;;8.40;2.78;;;14.60;99.90;;;;;;5060031;28;20074;-72
2022/06/20 06:08:09;;;;;;;15.65;4.65;;;14.50;99.90;;;;;;5063461;28;20055;-73
2022/06/20 06:11:09;;;;;;;18.23;7.10;;;14.40;99.90;;;;;;5062029;28;20526;-73
2022/06/20 06:14:12;;;;;;;23.52;6.32;;;14.50;99.90;;;;;;5061222;28;20049;-72
2022/06/20 06:16:46;;;;;;;16.40;4.88;;;14.60;99.90;;;;;;5065881;28;20509;-72
2022/06/20 06:19:24;;;;;;;11.60;3.92;;;14.60;99.90;;;;;;5068797;28;20056;-72
2022/06/20 06:21:52;;;;;;;17.20;5.97;;;14.70;99.90;;;;;;5068394;28;20060;-72
2022/06/20 06:24:22;;;;;;;8.60;2.70;;;14.70;99.90;;;;;;5041044;28;20128;-71
2022/06/20 06:26:49;;;;;;;;;;;14.80;99.90;;;;;;5066560;28;20563;-71
2022/06/20 06:29:23;;;;;;;13.23;3.13;;;14.80;99.90;;;;;;5068270;28;20388;-72
2022/06/20 06:31:54;;;;;;;6.68;2.50;;;14.70;99.90;;;;;;5066550;28;20048;-71
2022/06/20 06:34:30;;;;;;;11.75;2.80;;;14.80;99.90;;;;;;5067985;28;20040;-72
2022/06/20 06:37:04;;;;;;;9.65;3.08;;;14.80;99.90;;;;;;5068584;28;20044;-71
2022/06/20 06:39:41;;;;;;;10.52;3.38;;;14.90;99.90;;;;;;5067223;28;20051;-71
2022/06/20 06:42:13;;;;;;;9.68;3.05;;;15.00;99.90;;;;;;5068118;28;20475;-71
2022/06/20 06:44:48;;;;;;;10.90;3.10;;;15.20;99.90;;;;;;5066798;28;20124;-72
2022/06/20 06:47:45;;;;;;;9.23;3.78;;;15.20;99.90;;;;;;5067567;28;20044;-72
2022/06/20 06:50:37;;;;;;;10.55;2.83;;;15.30;99.90;;;;;;5069027;28;20119;-71
2022/06/20 06:53:11;;;;;;;7.60;2.70;;;15.30;99.90;;;;;;5060696;28;20124;-71
2022/06/20 06:55:41;;;;;;;9.40;2.72;;;15.20;99.90;;;;;;5067076;28;20080;-72
2022/06/20 06:58:22;;;;;;;12.35;2.65;;;15.30;99.90;;;;;;5067760;28;20041;-71
2022/06/20 07:01:12;;;;;;;9.35;2.67;;;15.40;99.90;;;;;;5065124;28;20044;-71
2022/06/20 07:03:56;;;;;;;;;;;15.60;99.90;;;;;;5067891;28;20063;-72
2022/06/20 07:06:48;;;;;;;12.85;2.08;;;15.70;99.80;;;;;;5065176;28;20003;-71
2022/06/20 07:09:27;;;;;;;9.95;2.15;;;15.50;99.90;;;;;;5062249;28;20437;-72
2022/06/20 07:12:20;;;;;;;9.02;3.10;;;15.30;99.90;;;;;;5067849;28;20585;-72
2022/06/20 07:15:13;;;;;;;12.85;2.78;;;15.30;99.90;;;;;;5056607;28;20048;-71
2022/06/20 07:17:58;;;;;;;10.60;3.70;;;15.60;99.90;;;;;;5058990;28;20061;-71
2022/06/20 07:20:36;;;;;;;10.73;2.42;;;15.80;99.90;;;;;;5063356;28;20052;-71
2022/06/20 07:23:05;;;;;;;11.43;2.67;;;16.00;99.90;;;;;;5066653;28;20076;-70
2022/06/20 07:25:37;;;;;;;10.47;2.87;;;15.80;99.90;;;;;;5065778;28;20543;-72
2022/06/20 07:28:06;;;;;;;9.95;2.83;;;15.50;99.90;;;;;;5065479;28;20044;-73
2022/06/20 07:30:43;;;;;;;10.98;3.28;;;15.10;99.90;;;;;;5064073;28;20166;-73
2022/06/20 07:33:19;;;;;;;14.30;2.70;;;14.90;99.90;;;;;;5064842;28;20054;-72
2022/06/20 07:35:50;;;;;;;12.43;3.05;;;14.80;99.90;;;;;;5066277;28;20063;-72
2022/06/20 07:38:23;;;;;;;21.65;4.22;;;14.70;99.90;;;;;;5066219;28;20115;-73
2022/06/20 07:40:55;;;;;;;7.55;2.53;;;14.60;99.90;;;;;;5065122;28;20541;-73
2022/06/20 07:43:37;;;;;;;9.13;2.25;;;15.00;99.90;;;;;;5066696;28;20816;-72
2022/06/20 07:46:08;;;;;;;12.93;3.03;;;15.50;99.90;;;;;;5057815;28;20044;-72
2022/06/20 07:48:40;;;;;;;8.63;2.05;;;16.00;99.90;;;;;;5044623;28;20319;-71
2022/06/20 07:51:27;;;;;;;4.43;1.70;;;16.40;99.90;;;;;;5063950;28;20372;-70
2022/06/20 07:54:01;;;;;;;6.72;1.70;;;16.60;99.50;;;;;;5062533;28;20070;-70
2022/06/20 07:56:42;;;;;;;6.57;1.58;;;16.60;99.30;;;;;;5059268;28;20555;-69
2022/06/20 07:59:30;;;;;;;7.10;2.10;;;16.60;99.20;;;;;;5066991;28;20086;-70
2022/06/20 08:02:10;;;;;;;10.10;1.90;;;16.90;98.30;;;;;;5066110;28;20106;-70
2022/06/20 08:04:37;;;;;;;11.23;2.13;;;17.20;98.40;;;;;;5057855;28;20409;-70
2022/06/20 08:07:22;;;;;;;10.05;2.65;;;17.20;96.00;;;;;;5056452;28;20064;-70
2022/06/20 08:09:57;;;;;;;7.30;1.70;;;16.70;99.00;;;;;;5058393;28;20047;-69
2022/06/20 08:12:32;;;;;;;6.15;2.28;;;16.20;98.90;;;;;;5066050;28;20175;-69
2022/06/20 08:15:03;;;;;;;4.35;1.40;;;16.50;99.90;;;;;;5064358;28;20133;-70
2022/06/20 08:17:30;;;;;;;4.80;1.35;;;17.00;94.10;;;;;;5048146;28;20064;-69
2022/06/20 08:19:57;;;;;;;9.27;1.92;;;17.20;91.60;;;;;;5065593;28;20121;-69
2022/06/20 08:22:41;;;;;;;8.98;2.50;;;17.50;85.30;;;;;;5064345;28;20045;-70
2022/06/20 08:25:31;;;;;;;2.60;1.25;;;17.80;90.70;;;;;;5055462;28;20076;-70
2022/06/20 08:28:04;;;;;;;4.68;1.20;;;17.90;94.70;;;;;;5064312;28;20265;-70
2022/06/20 08:30:42;;;;;;;5.68;1.40;;;17.80;87.00;;;;;;5066538;28;20083;-69
2022/06/20 08:33:24;;;;;;;5.93;1.80;;;17.40;90.80;;;;;;5066021;28;20335;-70
2022/06/20 08:36:08;;;;;;;7.00;2.13;;;17.60;75.60;;;;;;5065354;28;20060;-69
2022/06/20 08:38:47;;;;;;;9.63;1.45;;;17.80;78.50;;;;;;5066026;28;20047;-69
2022/06/20 08:41:39;;;;;;;3.05;1.05;;;17.90;81.80;;;;;;5064651;28;20109;-69
2022/06/20 08:44:28;;;;;;;11.18;1.75;;;18.00;73.10;;;;;;5065497;28;20072;-70
2022/06/20 08:47:37;;;;;;;10.05;2.28;;;17.50;71.30;;;;;;5052451;28;20055;-71
2022/06/20 08:50:22;;;;;;;5.75;1.48;;;17.30;91.90;;;;;;5064759;28;20036;-70
2022/06/20 08:53:11;;;;;;;6.55;1.70;;;17.10;91.20;;;;;;5063966;28;20117;-69
2022/06/20 08:56:00;;;;;;;8.38;1.50;;;16.80;92.90;;;;;;5064159;28;20055;-69
2022/06/20 08:58:47;;;;;;;7.40;1.40;;;16.60;97.70;;;;;;5064069;28;20494;-69
2022/06/20 09:01:25;;;;;;;3.25;1.02;;;16.50;95.10;;;;;;5065578;28;20132;-69
2022/06/20 09:04:20;;;;;;;2.50;1.10;;;16.40;97.30;;;;;;5065391;28;20063;-69
2022/06/20 09:06:57;;;;;;;7.15;1.60;;;16.80;96.50;;;;;;5063525;28;20044;-69
2022/06/20 09:09:41;;;;;;;2.60;1.30;;;17.30;90.30;;;;;;5064846;28;20486;-69
2022/06/20 09:12:16;;;;;;;3.08;1.05;;;17.10;82.70;;;;;;5064894;28;20131;-68
2022/06/20 09:14:52;;;;;;;3.25;1.10;;;16.50;91.40;;;;;;5049607;28;20134;-69
2022/06/20 09:17:27;;;;;;;3.50;1.30;;;16.10;93.20;;;;;;5048347;28;20048;-69
2022/06/20 09:20:14;;;;;;;5.07;1.50;;;15.80;95.60;;;;;;5064044;28;20377;-69
2022/06/20 09:22:46;;;;;;;7.47;1.75;;;15.70;98.40;;;;;;5065335;28;20056;-70
2022/06/20 09:25:52;;;;;;;5.30;1.30;;;16.00;99.10;;;;;;5065734;28;20067;-70
2022/06/20 09:28:29;;;;;;;5.75;1.30;;;16.70;95.10;;;;;;5051599;28;20057;-70
2022/06/20 09:31:10;;;;;;;4.05;1.15;;;17.00;91.70;;;;;;5063692;28;20052;-71
2022/06/20 09:33:59;;;;;;;8.32;1.58;;;17.00;91.90;;;;;;5063726;28;20502;-69
2022/06/20 09:36:37;;;;;;;;;;;16.80;93.50;;;;;;5065006;28;20052;-71
2022/06/20 09:39:29;;;;;;;6.53;1.50;;;16.80;97.20;;;;;;5066276;28;19924;-71
2022/06/20 09:42:13;;;;;;;2.58;1.00;;;17.00;92.50;;;;;;5064009;28;20071;-71
2022/06/20 09:44:52;;;;;;;4.38;1.10;;;17.20;87.80;;;;;;5064732;28;20563;-70
2022/06/20 09:47:24;;;;;;;3.33;1.27;;;17.50;84.40;;;;;;5065139;28;20409;-70
2022/06/20 09:50:20;;;;;;;8.10;1.80;;;17.30;83.20;;;;;;5064490;28;20067;-70
2022/06/20 09:53:09;;;;;;;4.20;1.30;;;17.10;83.40;;;;;;5068809;28;20205;-69
2022/06/20 09:55:50;;;;;;;3.40;1.40;;;17.20;93.10;;;;;;5056715;28;20560;-70
2022/06/20 09:58:47;;;;;;;4.72;1.50;;;17.30;94.10;;;;;;5067014;28;20048;-70
2022/06/20 10:01:28;;;;;;;2.97;0.88;;;17.40;88.40;;;;;;5069242;28;20245;-70
2022/06/20 10:04:31;;;;;;;3.95;1.20;;;17.10;79.10;;;;;;5068653;28;20051;-70
2022/06/20 10:07:16;;;;;;;5.60;1.25;;;17.20;72.60;;;;;;5064929;28;20539;-70
2022/06/20 10:09:51;;;;;;;3.28;1.10;;;17.30;73.10;;;;;;5060100;28;20097;-70
2022/06/20 10:12:42;;;;;;;8.60;1.85;;;17.20;89.80;;;;;;5067292;28;20059;-70
2022/06/20 10:15:11;;;;;;;3.88;1.45;;;17.20;66.30;;;;;;5050566;28;20055;-70
2022/06/20 10:17:41;;;;;;;2.70;1.20;;;17.20;63.80;;;;;;5049337;28;20048;-70
2022/06/20 10:20:28;;;;;;;2.72;1.13;;;17.20;66.40;;;;;;5066819;28;20052;-70
2022/06/20 10:22:57;;;;;;;2.97;1.50;;;17.00;78.60;;;;;;5068274;28;20375;-70
2022/06/20 10:25:22;;;;;;;3.65;1.17;;;16.90;91.30;;;;;;5067535;28;20487;-70
2022/06/20 10:28:09;;;;;;;4.50;1.70;;;17.00;77.50;;;;;;5049246;28;20102;-70
2022/06/20 10:30:46;;;;;;;7.07;1.25;;;17.10;81.40;;;;;;5067543;28;20048;-70
2022/06/20 10:33:24;;;;;;;7.72;1.38;;;17.10;86.80;;;;;;5067598;28;20793;-70
2022/06/20 10:36:15;;;;;;;11.60;1.25;;;17.20;67.70;;;;;;5068274;28;20386;-70
2022/06/20 10:39:09;;;;;;;4.65;1.08;;;17.40;86.20;;;;;;5067814;28;20074;-70
2022/06/20 10:41:54;;;;;;;5.82;1.60;;;17.60;79.80;;;;;;5067605;28;20534;-70
2022/06/20 10:44:27;;;;;;;4.13;1.10;;;17.80;85.90;;;;;;5068850;28;20315;-70
2022/06/20 10:47:05;;;;;;;5.53;0.90;;;17.80;82.90;;;;;;5066611;28;20084;-70
2022/06/20 10:49:37;;;;;;;5.40;1.35;;;17.50;58.00;;;;;;5067571;28;20402;-70
2022/06/20 10:52:21;;;;;;;2.08;0.95;;;17.20;77.40;;;;;;5054192;28;20049;-70
2022/06/20 10:55:11;;;;;;;5.28;1.25;;;17.40;84.10;;;;;;5067175;28;20087;-70
2022/06/20 10:57:52;;;;;;;4.63;1.48;;;17.30;78.70;;;;;;5068388;28;20052;-70
2022/06/20 11:00:22;;;;;;;5.28;1.50;;;17.20;87.80;;;;;;5067446;28;20706;-69
2022/06/20 11:03:06;;;;;;;4.45;1.13;;;16.90;92.30;;;;;;5066158;28;20045;-70
2022/06/20 11:05:54;;;;;;;4.10;1.20;;;17.10;91.60;;;;;;5068559;28;20157;-70
2022/06/20 11:08:39;;;;;;;7.60;1.75;;;17.10;92.80;;;;;;5066383;28;20047;-69
2022/06/20 11:11:23;;;;;;;3.35;0.95;;;17.10;89.70;;;;;;5066489;28;20055;-70
2022/06/20 11:14:05;;;;;;;3.03;1.10;;;17.20;86.60;;;;;;5066755;28;20489;-70
2022/06/20 11:16:46;;;;;;;7.78;1.77;;;17.30;88.50;;;;;;5055437;28;20115;-70
2022/06/20 11:19:32;;;;;;;4.95;1.50;;;17.50;93.90;;;;;;5067285;28;20084;-70
2022/06/20 11:22:01;;;;;;;9.43;1.88;;;17.40;78.90;;;;;;5067172;28;20074;-70
2022/06/20 11:24:42;;;;;;;2.85;1.25;;;17.20;72.70;;;;;;5065214;28;20443;-70
2022/06/20 11:27:29;;;;;;;4.32;1.45;;;17.30;85.60;;;;;;5066241;28;20064;-70
2022/06/20 11:29:54;;;;;;;4.53;1.45;;;17.20;90.50;;;;;;5065905;28;20126;-70
2022/06/20 11:32:31;;;;;;;14.05;2.30;;;17.00;92.60;;;;;;5066237;28;20513;-69
2022/06/20 11:35:10;;;;;;;5.95;1.73;;;16.90;95.70;;;;;;5067348;28;20044;-69
2022/06/20 11:37:42;;;;;;;3.35;1.52;;;16.90;93.40;;;;;;5066841;28;20080;-70
2022/06/20 11:40:22;;;;;;;3.03;1.00;;;17.00;87.40;;;;;;5066872;28;20510;-70
2022/06/20 11:43:15;;;;;;;8.02;1.48;;;17.30;91.80;;;;;;5066739;28;20090;-70
2022/06/20 11:45:59;;;;;;;7.10;1.83;;;17.60;90.30;;;;;;5056126;28;20524;-69
2022/06/20 11:48:58;;;;;;;4.03;1.10;;;17.40;85.20;;;;;;5067408;28;20040;-69
2022/06/20 11:51:55;;;;;;;1.20;0.80;;;17.00;76.20;;;;;;5066993;28;20048;-69
2022/06/20 11:54:46;;;;;;;5.35;1.20;;;16.60;72.80;;;;;;5057950;28;20098;-70
2022/06/20 11:57:30;;;;;;;3.28;1.10;;;16.90;75.80;;;;;;5082667;28;20056;-70
2022/06/20 12:00:03;;;;;;;5.88;1.02;;;17.20;70.10;;;;;;5048172;28;20399;-70
2022/06/20 12:02:48;;;;;;;3.40;1.00;;;17.40;82.70;;;;;;5064455;28;20060;-70
2022/06/20 12:05:31;;;;;;;6.90;1.20;;;17.70;77.00;;;;;;5066896;28;20131;-69
2022/06/20 12:08:07;;;;;;;4.35;1.30;;;17.80;92.70;;;;;;5066225;28;20052;-69
2022/06/20 12:10:47;;;;;;;5.43;1.63;;;18.10;93.10;;;;;;5066824;28;20044;-70
2022/06/20 12:13:15;;;;;;;;;;;18.10;90.10;;;;;;5058300;28;20131;-70
2022/06/20 12:16:00;;;;;;;4.60;0.90;;;18.20;72.80;;;;;;5060939;28;19924;-71
2022/06/20 12:18:39;;;;;;;5.65;1.23;;;18.00;69.70;;;;;;5065878;28;20052;-70
2022/06/20 12:24:05;;;;;;;5.45;1.77;;;17.00;80.90;;;;;;5065465;28;20072;-69
2022/06/20 12:26:35;;;;;;;4.03;1.17;;;16.80;91.00;;;;;;5066381;28;20147;-69
2022/06/20 12:29:12;;;;;;;3.33;1.08;;;16.90;95.20;;;;;;5065879;28;20059;-70
2022/06/20 12:31:41;;;;;;;2.22;0.80;;;17.10;82.30;;;;;;5066656;28;20032;-69
2022/06/20 12:34:16;;;;;;;2.38;1.02;;;17.40;62.90;;;;;;5058871;28;20124;-70
2022/06/20 12:37:10;;;;;;;2.95;1.00;;;17.50;79.70;;;;;;5065740;28;20048;-69
2022/06/20 12:39:55;;;;;;;5.35;1.20;;;17.70;89.40;;;;;;5065094;28;20063;-70
2022/06/20 12:42:27;;;;;;;7.07;1.33;;;17.60;77.80;;;;;;5064309;28;20055;-69
2022/06/20 12:45:30;;;;;;;5.43;1.55;;;17.20;90.30;;;;;;5065769;28;20040;-69
2022/06/20 12:48:11;;;;;;;5.82;1.23;;;16.90;94.90;;;;;;5064146;28;20900;-69
2022/06/20 12:51:01;;;;;;;3.67;1.30;;;16.80;94.60;;;;;;5065745;28;20074;-70
2022/06/20 12:53:35;;;;;;;8.30;1.10;;;17.10;92.90;;;;;;5066400;28;20047;-69
2022/06/20 12:56:09;;;;;;;4.45;1.42;;;17.20;94.30;;;;;;5064985;28;20109;-70
2022/06/20 12:58:35;;;;;;;8.30;1.38;;;17.20;94.00;;;;;;5065910;28;20044;-70
2022/06/20 13:01:39;;;;;;;4.78;1.50;;;17.10;95.50;;;;;;5064240;28;20048;-70
2022/06/20 13:04:43;;;;;;;3.13;0.98;;;17.00;91.70;;;;;;5039496;28;20057;-69
2022/06/20 13:07:14;;;;;;;3.67;1.13;;;17.10;95.70;;;;;;5065018;28;20122;-69
2022/06/20 13:10:06;;;;;;;4.30;1.33;;;17.00;92.80;;;;;;5066047;28;20047;-70
2022/06/20 13:12:58;;;;;;;5.45;1.10;;;16.80;95.80;;;;;;5063801;28;20049;-69
2022/06/20 13:15:26;;;;;;;3.47;1.40;;;17.10;99.40;;;;;;5081410;28;20093;-69
2022/06/20 13:18:31;;;;;;;8.87;1.53;;;17.50;99.40;;;;;;5064643;28;20048;-69
2022/06/20 13:21:21;;;;;;;5.65;1.83;;;17.80;99.10;;;;;;5037901;28;20064;-69
2022/06/20 13:23:59;;;;;;;;;;;17.90;93.80;;;;;;5066904;28;20083;-70
2022/06/20 13:26:35;;;;;;;5.00;1.40;;;17.80;94.40;;;;;;5067564;28;19922;-70
2022/06/20 13:29:19;;;;;;;4.53;1.17;;;18.00;95.60;;;;;;5069601;28;20059;-71
2022/06/20 13:31:56;;;;;;;5.18;1.30;;;18.20;88.90;;;;;;5068132;28;20040;-69
2022/06/20 13:34:40;;;;;;;5.55;1.63;;;18.10;82.20;;;;;;5068035;28;20406;-70
2022/06/20 13:37:11;;;;;;;4.30;1.25;;;17.90;91.60;;;;;;5067469;28;20056;-70
2022/06/20 13:39:46;;;;;;;4.82;1.30;;;17.90;88.40;;;;;;5068368;28;20469;-69
2022/06/20 13:42:26;;;;;;;3.05;1.40;;;17.80;87.30;;;;;;5067762;28;20124;-70
2022/06/20 13:44:54;;;;;;;;;;;17.50;96.70;;;;;;5070771;28;20084;-70